Time;durP1;ratioP1;P1;durP2;ratioP2;P2;SDS_P1;SDS_P2;PMS_P1;PMS_P2;Temp;Humidity;BMP_temperature;BMP_pressure;BME280_temperature;BME280_humidity;BME280_pressure;Samples;Min_cycle;Max_cycle;Signal;HPM_P1;HPM_P2
2021/06/14 00:00:53;;;;;;;4.22;2.83;;;19.90;59.40;;;;;;5085420;28;27453;-61
2021/06/14 00:03:38;;;;;;;2.78;1.98;;;19.80;59.40;;;;;;5084710;28;27419;-61
2021/06/14 00:06:23;;;;;;;4.30;2.25;;;19.80;59.40;;;;;;5085267;28;27468;-61
2021/06/14 00:09:08;;;;;;;2.50;2.20;;;19.70;59.60;;;;;;5081474;28;27473;-61
2021/06/14 00:11:53;;;;;;;6.38;2.40;;;19.70;59.70;;;;;;5085368;28;27966;-62
2021/06/14 00:14:38;;;;;;;3.97;2.50;;;19.60;59.80;;;;;;5067088;28;27493;-61
2021/06/14 00:17:22;;;;;;;2.92;2.50;;;19.60;59.90;;;;;;5085058;28;27454;-61
2021/06/14 00:20:08;;;;;;;2.80;2.10;;;19.60;59.90;;;;;;5084455;28;27450;-62
2021/06/14 00:22:53;;;;;;;2.40;2.20;;;19.50;60.00;;;;;;5084892;28;27464;-61
2021/06/14 00:25:38;;;;;;;4.68;2.38;;;19.50;60.00;;;;;;5085103;28;27458;-61
2021/06/14 00:28:23;;;;;;;5.60;2.33;;;19.50;60.10;;;;;;5084442;28;27430;-64
2021/06/14 00:31:09;;;;;;;3.28;2.72;;;19.40;60.20;;;;;;5082866;28;27430;-62
2021/06/14 00:33:53;;;;;;;2.47;2.28;;;19.40;60.20;;;;;;5084302;28;27431;-62
2021/06/14 00:36:38;;;;;;;4.00;2.50;;;19.40;60.40;;;;;;5084734;28;27438;-61
2021/06/14 00:39:23;;;;;;;2.50;2.10;;;19.30;60.40;;;;;;5112989;27;27500;-61
2021/06/14 00:42:07;;;;;;;2.65;2.17;;;19.30;60.40;;;;;;5082306;28;27602;-61
2021/06/14 00:44:52;;;;;;;2.72;2.38;;;19.20;60.40;;;;;;5084005;28;27885;-61
2021/06/14 00:47:37;;;;;;;3.60;1.92;;;19.20;60.50;;;;;;5068002;28;27648;-61
2021/06/14 00:50:41;;;;;;;3.22;2.22;;;19.10;60.50;;;;;;5084628;28;27436;-61
2021/06/14 00:53:33;;;;;;;3.63;2.35;;;19.10;59.90;;;;;;5067514;28;27403;-62
2021/06/14 00:56:18;;;;;;;4.55;2.58;;;19.10;60.20;;;;;;5083844;28;27872;-63
2021/06/14 00:59:06;;;;;;;3.13;2.03;;;19.00;60.30;;;;;;5080274;28;27423;-61
2021/06/14 01:01:51;;;;;;;2.30;1.90;;;18.90;60.20;;;;;;5084106;28;27471;-61
2021/06/14 01:04:36;;;;;;;4.95;2.30;;;18.80;60.40;;;;;;5084340;28;27381;-61
2021/06/14 01:07:21;;;;;;;3.65;2.20;;;18.80;60.70;;;;;;5084240;28;27915;-61
2021/06/14 01:10:06;;;;;;;5.22;2.45;;;18.70;60.90;;;;;;5084321;28;27469;-61
2021/06/14 01:13:07;;;;;;;4.93;2.13;;;18.70;61.00;;;;;;5083456;28;27348;-61
2021/06/14 01:16:20;;;;;;;4.97;2.35;;;18.60;61.10;;;;;;5082895;28;27624;-61
2021/06/14 01:19:36;;;;;;;3.40;2.10;;;18.60;60.70;;;;;;5079997;28;27414;-61
2021/06/14 01:22:28;;;;;;;6.93;2.40;;;18.60;61.20;;;;;;5084077;28;27513;-61
2021/06/14 01:25:16;;;;;;;2.88;2.38;;;18.50;60.90;;;;;;5083551;28;27473;-61
2021/06/14 01:28:02;;;;;;;4.55;2.10;;;18.50;61.30;;;;;;5083481;28;27399;-61
2021/06/14 01:30:47;;;;;;;3.00;2.00;;;18.50;61.20;;;;;;5065930;28;27333;-61
2021/06/14 01:33:36;;;;;;;5.03;2.17;;;18.40;61.60;;;;;;5080114;28;27420;-61
2021/06/14 01:36:31;;;;;;;4.82;1.90;;;18.40;61.40;;;;;;5083382;28;27444;-61
2021/06/14 01:39:17;;;;;;;3.35;2.05;;;18.30;61.60;;;;;;5066386;28;27444;-61
2021/06/14 01:42:04;;;;;;;3.08;2.35;;;18.30;61.40;;;;;;5067182;28;27547;-61
2021/06/14 01:44:49;;;;;;;2.78;2.17;;;18.20;61.60;;;;;;5069339;28;27469;-61
2021/06/14 01:47:35;;;;;;;4.50;2.30;;;18.20;61.60;;;;;;5069644;28;27422;-61
2021/06/14 01:50:20;;;;;;;5.45;2.33;;;18.20;61.70;;;;;;5086679;28;27563;-61
2021/06/14 01:53:05;;;;;;;3.70;2.05;;;18.20;62.40;;;;;;5100814;27;27458;-61
2021/06/14 01:55:50;;;;;;;3.10;1.85;;;18.10;61.50;;;;;;5069396;28;27412;-61
2021/06/14 01:58:36;;;;;;;7.57;2.38;;;18.10;61.50;;;;;;5100906;27;27446;-61
2021/06/14 02:01:32;;;;;;;2.42;1.80;;;18.00;61.70;;;;;;5086947;28;27390;-61
2021/06/14 02:04:17;;;;;;;5.53;2.22;;;18.00;61.60;;;;;;5087432;28;27333;-61
2021/06/14 02:07:05;;;;;;;4.75;2.63;;;17.90;61.60;;;;;;5086962;28;27332;-61
2021/06/14 02:09:50;;;;;;;4.22;2.10;;;17.90;61.90;;;;;;5068867;28;27366;-61
2021/06/14 02:12:39;;;;;;;3.92;1.90;;;17.90;61.90;;;;;;5083348;28;27371;-61
2021/06/14 02:15:24;;;;;;;4.80;1.80;;;17.80;61.90;;;;;;5097413;28;27476;-61
2021/06/14 02:18:10;;;;;;;5.63;2.38;;;17.80;62.00;;;;;;5069032;28;27474;-61
2021/06/14 02:20:56;;;;;;;4.22;2.13;;;17.80;61.90;;;;;;5068714;28;27426;-61
2021/06/14 02:23:41;;;;;;;3.03;1.95;;;17.70;61.90;;;;;;5068771;28;27406;-61
2021/06/14 02:26:26;;;;;;;2.03;1.80;;;17.70;62.10;;;;;;5068613;28;27391;-61
2021/06/14 02:29:12;;;;;;;3.78;2.10;;;17.70;62.10;;;;;;5068837;28;26944;-61
2021/06/14 02:31:57;;;;;;;2.33;2.05;;;17.60;62.20;;;;;;5086723;28;27388;-61
2021/06/14 02:34:43;;;;;;;4.25;1.85;;;17.60;62.40;;;;;;5083066;28;27383;-61
2021/06/14 02:37:29;;;;;;;7.93;2.50;;;17.50;62.50;;;;;;5086737;28;27391;-61
2021/06/14 02:40:14;;;;;;;2.78;2.10;;;17.50;61.90;;;;;;5100107;27;27348;-61
2021/06/14 02:43:06;;;;;;;4.05;2.08;;;17.50;62.20;;;;;;5082532;28;27384;-61
2021/06/14 02:45:51;;;;;;;3.55;1.70;;;17.40;62.10;;;;;;5054577;28;27328;-61
2021/06/14 02:48:46;;;;;;;4.20;2.33;;;17.40;62.60;;;;;;5082706;28;27415;-61
2021/06/14 02:51:32;;;;;;;2.85;2.10;;;17.40;62.70;;;;;;5068515;28;27385;-61
2021/06/14 02:54:26;;;;;;;3.97;2.05;;;17.30;62.80;;;;;;5067183;28;27392;-61
2021/06/14 02:57:12;;;;;;;3.80;2.08;;;17.30;62.90;;;;;;5086610;28;27410;-61
2021/06/14 02:59:58;;;;;;;4.93;2.17;;;17.30;62.70;;;;;;5068153;28;27409;-61
2021/06/14 03:02:50;;;;;;;6.57;1.90;;;17.30;62.70;;;;;;5069776;28;27411;-61
2021/06/14 03:05:34;;;;;;;3.17;2.22;;;17.30;62.90;;;;;;5085673;28;27494;-61
2021/06/14 03:08:20;;;;;;;3.88;2.13;;;17.20;62.90;;;;;;5068325;28;27417;-60
2021/06/14 03:11:05;;;;;;;3.13;2.20;;;17.20;62.90;;;;;;5099903;27;27427;-61
2021/06/14 03:13:50;;;;;;;6.05;2.60;;;17.20;63.00;;;;;;5067762;28;27495;-63
2021/06/14 03:16:37;;;;;;;5.35;2.33;;;17.10;62.90;;;;;;5068201;28;27403;-61
2021/06/14 03:19:25;;;;;;;3.17;2.17;;;17.10;63.00;;;;;;5081898;28;27337;-61
2021/06/14 03:22:16;;;;;;;3.65;2.45;;;17.10;64.10;;;;;;5085243;28;27480;-61
2021/06/14 03:25:01;;;;;;;3.53;2.72;;;17.10;62.80;;;;;;5067966;28;27416;-61
2021/06/14 03:27:46;;;;;;;3.83;2.28;;;17.10;63.10;;;;;;5085853;28;27464;-61
2021/06/14 03:30:31;;;;;;;4.03;2.40;;;17.00;63.30;;;;;;5084797;28;27432;-61
2021/06/14 03:33:17;;;;;;;2.50;2.15;;;17.00;63.40;;;;;;5070701;28;27876;-61
2021/06/14 03:36:01;;;;;;;2.38;2.17;;;17.00;63.50;;;;;;5085000;28;27348;-61
2021/06/14 03:38:46;;;;;;;2.42;1.83;;;17.00;63.50;;;;;;5081989;28;27446;-61
2021/06/14 03:41:31;;;;;;;2.58;2.17;;;16.90;63.80;;;;;;5084091;28;27495;-61
2021/06/14 03:44:16;;;;;;;2.92;1.98;;;16.90;63.50;;;;;;5085488;28;27877;-61
2021/06/14 03:47:01;;;;;;;6.82;2.05;;;16.90;63.80;;;;;;5085397;28;27545;-61
2021/06/14 03:49:46;;;;;;;3.35;2.20;;;16.90;63.70;;;;;;5085587;28;27412;-63
2021/06/14 03:52:31;;;;;;;5.13;2.63;;;16.90;63.90;;;;;;5081362;28;27477;-63
2021/06/14 03:55:19;;;;;;;4.40;2.20;;;16.90;64.20;;;;;;5084658;28;27482;-63
2021/06/14 03:58:03;;;;;;;5.05;2.20;;;16.90;64.00;;;;;;5084013;28;27585;-61
2021/06/14 04:00:48;;;;;;;4.07;2.50;;;16.90;63.50;;;;;;5085417;28;27341;-61
2021/06/14 04:03:33;;;;;;;4.25;2.65;;;16.90;64.00;;;;;;5084730;28;27383;-61
2021/06/14 04:06:18;;;;;;;5.72;2.22;;;16.80;64.00;;;;;;5084142;28;27353;-61
2021/06/14 04:09:04;;;;;;;3.58;2.35;;;16.80;65.10;;;;;;5085093;28;27410;-61
2021/06/14 04:11:49;;;;;;;4.45;2.25;;;16.80;64.40;;;;;;5085104;28;27332;-61
2021/06/14 04:14:34;;;;;;;5.72;2.58;;;16.80;64.60;;;;;;5085003;28;27351;-61
2021/06/14 04:17:18;;;;;;;9.40;2.65;;;16.80;64.50;;;;;;5085044;28;27324;-61
2021/06/14 04:20:07;;;;;;;2.85;1.77;;;16.70;64.70;;;;;;5080856;28;27400;-60
2021/06/14 04:22:53;;;;;;;5.15;1.98;;;16.70;64.80;;;;;;5067069;28;27464;-61
2021/06/14 04:25:38;;;;;;;3.85;2.55;;;16.70;64.60;;;;;;5066823;28;27459;-61
2021/06/14 04:28:22;;;;;;;6.47;2.55;;;16.70;64.60;;;;;;5084976;28;27480;-61
2021/06/14 04:31:07;;;;;;;2.95;2.40;;;16.70;64.40;;;;;;5084005;28;27521;-61
2021/06/14 04:33:52;;;;;;;3.05;2.10;;;16.70;64.30;;;;;;5083998;28;27412;-60
2021/06/14 04:36:37;;;;;;;4.30;2.33;;;16.70;64.60;;;;;;5083919;28;27399;-60
2021/06/14 04:39:22;;;;;;;6.40;2.35;;;16.70;65.10;;;;;;5084909;28;27961;-61
2021/06/14 04:42:07;;;;;;;2.60;2.30;;;16.70;65.00;;;;;;5053561;28;27507;-60
2021/06/14 04:44:52;;;;;;;6.00;2.45;;;16.70;65.10;;;;;;5066675;28;27509;-60
2021/06/14 04:47:37;;;;;;;3.80;2.65;;;16.70;65.40;;;;;;5098605;27;27461;-61
2021/06/14 04:50:21;;;;;;;4.53;2.60;;;16.70;65.40;;;;;;5080658;28;27332;-60
2021/06/14 04:53:06;;;;;;;3.78;2.53;;;16.70;65.70;;;;;;5083373;28;27367;-61
2021/06/14 04:55:51;;;;;;;4.53;2.42;;;16.70;66.70;;;;;;5084482;28;27379;-60
2021/06/14 04:58:35;;;;;;;6.82;3.00;;;16.70;65.80;;;;;;5083794;28;27339;-61
2021/06/14 05:01:20;;;;;;;4.55;2.80;;;16.70;66.10;;;;;;5080006;28;27376;-60
2021/06/14 05:04:06;;;;;;;4.15;2.90;;;16.70;66.40;;;;;;5083470;28;27402;-61
2021/06/14 05:06:50;;;;;;;4.03;2.90;;;16.80;66.40;;;;;;5084616;28;27399;-61
2021/06/14 05:09:35;;;;;;;4.82;2.35;;;16.80;66.40;;;;;;5083768;28;27421;-61
2021/06/14 05:12:20;;;;;;;3.80;2.78;;;16.80;66.50;;;;;;5084137;28;27371;-60
2021/06/14 05:15:06;;;;;;;5.40;3.03;;;16.80;66.70;;;;;;5083573;28;27407;-61
2021/06/14 05:17:50;;;;;;;6.53;2.92;;;16.90;66.80;;;;;;5111558;27;27399;-61
2021/06/14 05:20:38;;;;;;;4.43;3.25;;;16.90;67.00;;;;;;5082010;28;27392;-60
2021/06/14 05:23:23;;;;;;;3.50;2.78;;;16.90;67.10;;;;;;5084354;28;27427;-61
2021/06/14 05:26:08;;;;;;;4.05;2.78;;;16.90;66.80;;;;;;5084334;28;27406;-61
2021/06/14 05:28:53;;;;;;;3.50;2.70;;;16.90;68.00;;;;;;5068861;28;27411;-61
2021/06/14 05:31:39;;;;;;;4.38;3.00;;;17.00;67.30;;;;;;5083119;28;27473;-61
2021/06/14 05:34:24;;;;;;;4.32;2.75;;;17.00;67.60;;;;;;5079925;28;27407;-63
2021/06/14 05:37:09;;;;;;;4.72;3.08;;;17.00;67.70;;;;;;5065690;28;27534;-63
2021/06/14 05:39:53;;;;;;;4.22;2.90;;;17.00;67.70;;;;;;5065826;28;26975;-63
2021/06/14 05:42:38;;;;;;;5.65;3.80;;;17.10;67.80;;;;;;5082635;28;27493;-63
2021/06/14 05:45:23;;;;;;;5.22;3.20;;;17.10;67.90;;;;;;5097547;27;27490;-63
2021/06/14 05:48:08;;;;;;;7.15;4.00;;;17.20;68.40;;;;;;5083508;28;27435;-63
2021/06/14 05:50:53;;;;;;;7.85;4.03;;;17.30;69.70;;;;;;5084276;28;27418;-63
2021/06/14 05:53:38;;;;;;;7.38;3.70;;;17.50;68.10;;;;;;5083530;28;27452;-63
2021/06/14 05:56:23;;;;;;;6.72;3.95;;;17.80;66.30;;;;;;5084146;28;27892;-63
2021/06/14 05:59:08;;;;;;;9.27;3.78;;;18.00;66.60;;;;;;5083136;28;27476;-63
2021/06/14 06:01:52;;;;;;;6.53;3.60;;;18.20;66.70;;;;;;5083925;28;27494;-64
2021/06/14 06:04:41;;;;;;;7.45;4.18;;;18.50;67.80;;;;;;5089044;28;27406;-64
2021/06/14 06:07:26;;;;;;;7.28;4.07;;;18.60;67.80;;;;;;5088765;28;27453;-64
2021/06/14 06:10:11;;;;;;;7.30;3.55;;;18.90;66.90;;;;;;5083953;28;27438;-64
2021/06/14 06:12:56;;;;;;;6.60;4.28;;;19.10;67.40;;;;;;5083028;28;27525;-64
2021/06/14 06:15:41;;;;;;;7.68;4.32;;;19.20;68.40;;;;;;5079959;28;27476;-64
2021/06/14 06:18:26;;;;;;;8.00;3.70;;;19.40;68.30;;;;;;5083893;28;27505;-64
2021/06/14 06:21:11;;;;;;;8.95;4.07;;;19.60;67.60;;;;;;5083682;28;27434;-64
2021/06/14 06:23:55;;;;;;;6.47;3.88;;;19.70;67.20;;;;;;5083626;28;27512;-64
2021/06/14 06:26:40;;;;;;;5.38;3.70;;;19.90;67.40;;;;;;5083035;28;27517;-64
2021/06/14 06:29:26;;;;;;;7.30;3.42;;;20.10;67.40;;;;;;5067603;28;27833;-64
2021/06/14 06:32:10;;;;;;;8.73;3.72;;;20.30;67.70;;;;;;5086501;28;27434;-65
2021/06/14 06:34:55;;;;;;;5.38;3.63;;;20.40;67.50;;;;;;5087294;28;27468;-64
2021/06/14 06:37:40;;;;;;;6.00;3.45;;;20.60;66.60;;;;;;5100646;27;27431;-64
2021/06/14 06:40:24;;;;;;;4.15;3.28;;;20.80;66.20;;;;;;5085530;28;27445;-66
2021/06/14 06:43:09;;;;;;;4.25;3.28;;;21.00;66.40;;;;;;5086296;28;27519;-65
2021/06/14 06:45:53;;;;;;;7.13;3.88;;;21.10;66.10;;;;;;5086878;28;27467;-65
2021/06/14 06:48:38;;;;;;;7.20;3.15;;;21.30;66.30;;;;;;5085951;28;27558;-65
2021/06/14 06:51:23;;;;;;;5.32;3.08;;;21.50;66.00;;;;;;5086163;28;27434;-64
2021/06/14 06:54:11;;;;;;;5.30;2.97;;;21.60;65.90;;;;;;5086598;28;27606;-65
2021/06/14 06:56:56;;;;;;;6.57;3.25;;;21.80;65.50;;;;;;5086997;28;27386;-64
2021/06/14 06:59:41;;;;;;;4.82;3.20;;;21.90;65.50;;;;;;5086085;28;27423;-64
2021/06/14 07:02:25;;;;;;;7.57;3.53;;;22.10;65.80;;;;;;5086472;28;27460;-63
2021/06/14 07:05:10;;;;;;;6.53;3.28;;;22.20;65.20;;;;;;5068390;28;27444;-62
2021/06/14 07:07:55;;;;;;;6.43;2.75;;;22.40;65.40;;;;;;5085736;28;27357;-63
2021/06/14 07:10:40;;;;;;;4.38;2.85;;;22.50;65.70;;;;;;5082743;28;27476;-63
2021/06/14 07:13:25;;;;;;;4.70;2.72;;;22.70;64.50;;;;;;5086318;28;27407;-63
2021/06/14 07:16:09;;;;;;;5.28;2.70;;;22.80;64.60;;;;;;5082273;28;27415;-62
2021/06/14 07:18:54;;;;;;;5.45;3.20;;;23.00;63.90;;;;;;5082341;28;27395;-63
2021/06/14 07:21:39;;;;;;;4.15;2.67;;;23.10;64.50;;;;;;5085198;28;27469;-62
2021/06/14 07:24:24;;;;;;;3.67;2.60;;;23.30;64.20;;;;;;5086462;28;27464;-63
2021/06/14 07:27:08;;;;;;;3.60;2.47;;;23.50;63.70;;;;;;5082339;28;27407;-63
2021/06/14 07:29:53;;;;;;;6.90;2.70;;;23.60;64.00;;;;;;5086406;28;27427;-62
2021/06/14 07:32:39;;;;;;;6.15;2.30;;;23.80;63.40;;;;;;5086281;28;27450;-63
2021/06/14 07:35:23;;;;;;;4.55;2.55;;;23.90;64.20;;;;;;5084792;28;27411;-63
2021/06/14 07:38:10;;;;;;;6.55;2.40;;;24.10;64.00;;;;;;5085914;28;27450;-67
2021/06/14 07:40:55;;;;;;;4.05;2.58;;;24.20;62.90;;;;;;5084319;28;27432;-63
2021/06/14 07:43:39;;;;;;;4.10;2.58;;;24.40;62.60;;;;;;5086191;28;27458;-63
2021/06/14 07:46:24;;;;;;;5.15;2.47;;;24.60;63.90;;;;;;5085784;28;27465;-64
2021/06/14 07:49:09;;;;;;;7.28;2.55;;;24.80;63.00;;;;;;5085814;28;27454;-64
2021/06/14 07:51:54;;;;;;;2.78;2.20;;;24.90;61.00;;;;;;5085058;28;27465;-63
2021/06/14 07:54:38;;;;;;;9.02;2.70;;;25.00;61.20;;;;;;5067826;28;27403;-63
2021/06/14 07:57:23;;;;;;;5.35;2.60;;;25.20;59.90;;;;;;5085614;28;27395;-63
2021/06/14 08:00:09;;;;;;;4.43;2.40;;;25.40;61.00;;;;;;5067443;28;27471;-64
2021/06/14 08:02:55;;;;;;;4.40;2.20;;;25.50;59.80;;;;;;5084701;28;27439;-64
2021/06/14 08:05:40;;;;;;;3.40;2.20;;;25.70;59.30;;;;;;5084778;28;27506;-64
2021/06/14 08:08:25;;;;;;;3.67;2.22;;;25.80;57.00;;;;;;5085662;28;27947;-64
2021/06/14 08:11:10;;;;;;;4.53;2.53;;;26.00;57.20;;;;;;5085601;28;27439;-64
2021/06/14 08:13:55;;;;;;;7.00;2.67;;;26.10;55.20;;;;;;5070805;28;27439;-64
2021/06/14 08:16:42;;;;;;;3.85;2.60;;;26.20;54.40;;;;;;5084538;28;27336;-64
2021/06/14 08:25:48;;;;;;;5.65;1.90;;;26.60;53.20;;;;;;5084644;28;27403;-64
2021/06/14 08:28:33;;;;;;;3.65;1.90;;;26.80;54.20;;;;;;5081508;28;27335;-64
2021/06/14 08:31:18;;;;;;;5.65;2.10;;;27.00;53.50;;;;;;5083822;28;27365;-64
2021/06/14 08:34:03;;;;;;;3.88;1.95;;;27.20;53.10;;;;;;5085250;28;27348;-64
2021/06/14 08:36:47;;;;;;;3.97;2.08;;;27.30;53.50;;;;;;5084260;28;27330;-64
2021/06/14 08:39:33;;;;;;;8.10;2.10;;;27.50;53.60;;;;;;5085050;28;27390;-65
2021/06/14 08:42:18;;;;;;;6.18;2.33;;;27.60;52.40;;;;;;5083918;28;27373;-65
2021/06/14 08:45:03;;;;;;;5.30;2.15;;;27.70;53.00;;;;;;5084855;28;27398;-64
2021/06/14 08:47:49;;;;;;;4.63;2.22;;;27.80;53.30;;;;;;5067030;28;27379;-64
2021/06/14 08:50:33;;;;;;;4.15;2.10;;;28.00;53.90;;;;;;5085103;28;27324;-65
2021/06/14 08:53:19;;;;;;;3.08;1.90;;;28.10;53.50;;;;;;5083161;28;27378;-65
2021/06/14 08:56:05;;;;;;;6.93;1.88;;;28.20;53.20;;;;;;5070136;28;27406;-65
2021/06/14 08:58:50;;;;;;;6.85;2.05;;;28.20;38.50;;;;;;5052825;28;27381;-65
2021/06/14 09:01:35;;;;;;;10.02;2.60;;;28.20;38.50;;;;;;5080248;28;27385;-66
2021/06/14 09:04:20;;;;;;;3.28;1.77;;;28.40;40.90;;;;;;5083855;28;27939;-66
2021/06/14 09:07:07;;;;;;;4.45;2.28;;;28.70;44.30;;;;;;5083755;28;27332;-66
2021/06/14 09:09:52;;;;;;;3.75;2.38;;;29.00;44.30;;;;;;5083823;28;27502;-66
2021/06/14 09:12:40;;;;;;;4.38;2.03;;;29.20;45.70;;;;;;5083681;28;27538;-66
2021/06/14 09:15:26;;;;;;;6.43;1.45;;;29.30;45.80;;;;;;5098003;27;27427;-66
2021/06/14 09:18:15;;;;;;;2.25;1.65;;;29.40;44.60;;;;;;5084354;28;27550;-70
2021/06/14 09:21:11;;;;;;;8.65;2.40;;;29.50;46.00;;;;;;5083857;28;27342;-66
2021/06/14 09:23:58;;;;;;;5.45;2.20;;;29.60;45.90;;;;;;5084611;28;27333;-66
2021/06/14 09:26:45;;;;;;;6.28;2.28;;;29.80;46.80;;;;;;5080428;28;27466;-67
2021/06/14 09:29:30;;;;;;;2.63;1.75;;;29.90;46.80;;;;;;5084276;28;27427;-67
2021/06/14 09:32:15;;;;;;;3.60;1.80;;;30.00;44.90;;;;;;5084615;28;27420;-67
2021/06/14 09:35:00;;;;;;;3.78;2.00;;;30.10;45.50;;;;;;5084479;28;27427;-66
2021/06/14 09:38:14;;;;;;;5.05;1.60;;;30.20;45.40;;;;;;5083413;28;27486;-67
2021/06/14 09:40:59;;;;;;;6.75;2.20;;;30.20;44.30;;;;;;5084051;28;27417;-67
2021/06/14 09:43:46;;;;;;;3.60;1.80;;;30.20;45.30;;;;;;5083450;28;27458;-66
2021/06/14 09:46:32;;;;;;;3.30;1.70;;;30.30;43.20;;;;;;5097672;27;27426;-67
2021/06/14 09:49:18;;;;;;;4.28;1.65;;;30.30;45.50;;;;;;5084223;28;27331;-67
2021/06/14 09:52:03;;;;;;;3.08;2.13;;;30.30;45.90;;;;;;5082825;28;27387;-67
2021/06/14 09:54:48;;;;;;;5.93;1.92;;;30.40;44.90;;;;;;5083279;28;27394;-67
2021/06/14 09:57:33;;;;;;;4.18;2.10;;;30.40;44.30;;;;;;5083384;28;27319;-67
2021/06/14 10:00:18;;;;;;;4.25;2.38;;;30.50;44.30;;;;;;5084275;28;27374;-67
2021/06/14 10:03:03;;;;;;;5.85;1.88;;;30.50;44.20;;;;;;5083761;28;27394;-67
2021/06/14 10:05:49;;;;;;;2.90;1.63;;;30.60;45.10;;;;;;5083768;28;27335;-67
2021/06/14 10:08:35;;;;;;;3.50;2.05;;;30.60;44.70;;;;;;5086712;28;27467;-67
2021/06/14 10:11:22;;;;;;;4.43;1.85;;;30.50;43.20;;;;;;5086573;28;27403;-67
2021/06/14 10:14:10;;;;;;;6.60;2.10;;;30.60;44.60;;;;;;5087546;28;27313;-67
2021/06/14 10:17:02;;;;;;;5.80;1.90;;;30.60;46.60;;;;;;5086534;28;27417;-67
2021/06/14 10:19:47;;;;;;;6.32;2.40;;;30.70;45.40;;;;;;5084027;28;27367;-67
2021/06/14 10:22:32;;;;;;;5.18;1.95;;;30.70;44.90;;;;;;5087094;28;27336;-67
2021/06/14 10:25:17;;;;;;;3.78;1.77;;;30.80;45.00;;;;;;5086667;28;27416;-67
2021/06/14 10:28:06;;;;;;;3.55;2.10;;;30.80;46.70;;;;;;5087181;28;27527;-68
2021/06/14 10:30:52;;;;;;;4.05;2.20;;;30.90;46.00;;;;;;5086387;28;27459;-67
2021/06/14 10:33:36;;;;;;;2.95;1.60;;;30.90;45.50;;;;;;5069142;28;27416;-68
2021/06/14 10:36:24;;;;;;;3.97;2.10;;;31.00;45.70;;;;;;5086992;28;27420;-69
2021/06/14 10:39:10;;;;;;;2.95;1.60;;;31.00;47.00;;;;;;5087294;28;27379;-68
2021/06/14 10:41:55;;;;;;;5.15;1.98;;;31.00;44.30;;;;;;5084434;28;27352;-68
2021/06/14 10:44:40;;;;;;;5.40;2.10;;;31.00;46.30;;;;;;5100665;27;27946;-68
2021/06/14 10:47:24;;;;;;;2.88;1.75;;;31.00;46.60;;;;;;5100253;27;27410;-68
2021/06/14 10:50:15;;;;;;;3.50;1.80;;;31.20;45.90;;;;;;5086295;28;27468;-68
2021/06/14 10:52:59;;;;;;;4.50;1.75;;;31.20;45.40;;;;;;5069432;28;27476;-68
2021/06/14 10:55:49;;;;;;;2.97;1.80;;;31.20;46.80;;;;;;5086161;28;27407;-68
2021/06/14 10:58:35;;;;;;;2.80;1.70;;;31.20;48.10;;;;;;5086112;28;27479;-68
2021/06/14 11:01:31;;;;;;;5.45;1.58;;;31.20;45.70;;;;;;5086031;28;27434;-68
2021/06/14 11:04:24;;;;;;;2.80;1.70;;;31.20;44.00;;;;;;5085809;28;27333;-67
2021/06/14 11:07:08;;;;;;;3.78;1.50;;;31.20;46.10;;;;;;5082704;28;27845;-67
2021/06/14 11:09:53;;;;;;;4.30;1.50;;;31.20;46.30;;;;;;5100048;27;27379;-68
2021/06/14 11:12:48;;;;;;;4.53;1.65;;;31.20;47.10;;;;;;5068405;28;27404;-68
2021/06/14 11:16:21;;;;;;;6.32;1.60;;;31.30;47.00;;;;;;5085402;28;27336;-68
2021/06/14 11:19:17;;;;;;;3.03;1.60;;;31.30;46.70;;;;;;5086305;28;27329;-68
2021/06/14 11:22:08;;;;;;;3.50;1.60;;;31.30;47.60;;;;;;5085965;28;27477;-67
2021/06/14 11:24:59;;;;;;;5.10;1.70;;;31.40;48.30;;;;;;5086266;28;27443;-67
2021/06/14 11:27:51;;;;;;;3.10;1.67;;;31.50;49.90;;;;;;5067924;28;27328;-67
2021/06/14 11:30:49;;;;;;;3.78;1.77;;;31.50;46.30;;;;;;5086078;28;27914;-67
2021/06/14 11:33:42;;;;;;;3.13;1.75;;;31.60;46.80;;;;;;5085347;28;27363;-68
2021/06/14 11:37:01;;;;;;;3.80;1.50;;;31.50;42.20;;;;;;5082096;28;27462;-72
2021/06/14 11:40:01;;;;;;;2.83;1.73;;;31.50;45.00;;;;;;5086266;28;27344;-67
2021/06/14 11:43:41;;;;;;;2.20;1.50;;;31.60;45.70;;;;;;5085183;28;27413;-69
2021/06/14 11:46:40;;;;;;;6.97;2.05;;;31.60;47.90;;;;;;5086133;28;27364;-68
2021/06/14 11:50:18;;;;;;;6.18;1.45;;;31.60;48.30;;;;;;5086186;28;27454;-68
2021/06/14 11:53:06;;;;;;;5.13;1.83;;;31.60;46.80;;;;;;5085782;28;27312;-71
2021/06/14 11:56:03;;;;;;;3.90;1.85;;;31.60;46.10;;;;;;5084864;28;27342;-67
2021/06/14 11:59:17;;;;;;;2.22;1.50;;;31.60;45.80;;;;;;5086004;28;27406;-68
2021/06/14 12:02:32;;;;;;;5.65;1.98;;;31.80;51.00;;;;;;5085604;28;27529;-68
2021/06/14 12:05:57;;;;;;;4.13;1.50;;;31.80;49.40;;;;;;5085856;28;27316;-66
2021/06/14 12:08:51;;;;;;;6.07;1.58;;;32.00;50.00;;;;;;5085056;28;27336;-66
2021/06/14 12:11:57;;;;;;;5.57;1.63;;;32.00;49.70;;;;;;5084781;28;27376;-67
2021/06/14 12:14:53;;;;;;;5.93;2.00;;;32.10;49.60;;;;;;5085785;28;27378;-66
2021/06/14 12:18:02;;;;;;;3.80;1.60;;;32.00;44.50;;;;;;5085335;28;27489;-67
2021/06/14 12:21:00;;;;;;;3.20;1.40;;;31.90;43.30;;;;;;5085150;28;27392;-67
2021/06/14 12:24:16;;;;;;;6.35;2.10;;;31.80;45.80;;;;;;5085299;28;27340;-67
2021/06/14 12:27:23;;;;;;;2.08;1.33;;;31.60;42.90;;;;;;5085491;28;27460;-67
2021/06/14 12:30:30;;;;;;;2.63;1.58;;;31.50;44.40;;;;;;5083786;28;27447;-66
2021/06/14 12:33:38;;;;;;;4.00;1.92;;;31.40;47.30;;;;;;5084676;28;27582;-66
2021/06/14 12:36:30;;;;;;;2.10;1.20;;;31.40;51.80;;;;;;5084553;28;27371;-67
2021/06/14 12:39:41;;;;;;;4.57;1.70;;;31.50;51.10;;;;;;5085068;28;27498;-67
2021/06/14 12:42:31;;;;;;;4.55;1.60;;;31.60;47.40;;;;;;5083391;28;27633;-66
2021/06/14 12:45:38;;;;;;;1.98;1.23;;;31.50;47.50;;;;;;5085154;28;27459;-66
2021/06/14 12:48:29;;;;;;;2.78;1.60;;;31.50;48.40;;;;;;5085036;28;27394;-66
2021/06/14 12:51:31;;;;;;;2.78;1.60;;;31.40;49.40;;;;;;5084123;28;27489;-67
2021/06/14 12:54:43;;;;;;;1.73;1.20;;;31.40;49.60;;;;;;5084825;28;27368;-67
2021/06/14 12:57:59;;;;;;;4.30;1.92;;;31.40;51.70;;;;;;5084923;28;27387;-66
2021/06/14 13:01:05;;;;;;;4.43;1.40;;;31.50;51.60;;;;;;5084306;28;27375;-67
2021/06/14 13:04:43;;;;;;;2.95;1.50;;;31.50;51.50;;;;;;5084716;28;27314;-66
2021/06/14 13:07:34;;;;;;;2.80;1.60;;;31.60;52.20;;;;;;5084569;28;27465;-66
2021/06/14 13:10:39;;;;;;;3.50;1.48;;;31.60;49.80;;;;;;5084523;28;27946;-66
2021/06/14 13:13:35;;;;;;;1.40;1.25;;;31.70;52.00;;;;;;5084474;28;27328;-65
2021/06/14 13:16:25;;;;;;;4.57;1.45;;;31.70;49.10;;;;;;5083962;28;27380;-66
2021/06/14 13:19:31;;;;;;;3.97;1.77;;;31.80;46.30;;;;;;5085396;28;27494;-66
2021/06/14 13:22:22;;;;;;;3.33;1.52;;;31.90;48.50;;;;;;5081133;28;27399;-66
2021/06/14 13:25:29;;;;;;;2.00;1.30;;;31.90;50.00;;;;;;5085049;28;27367;-67
2021/06/14 13:28:29;;;;;;;5.25;1.50;;;31.90;49.50;;;;;;5084589;28;27443;-67
2021/06/14 13:31:24;;;;;;;3.97;1.75;;;31.80;45.50;;;;;;5084021;28;27399;-66
2021/06/14 13:34:28;;;;;;;3.90;1.60;;;31.80;48.20;;;;;;5069235;28;27942;-66
2021/06/14 13:37:19;;;;;;;1.80;1.30;;;31.60;46.10;;;;;;5083793;28;27363;-66
2021/06/14 13:40:21;;;;;;;3.08;1.60;;;31.60;49.60;;;;;;5083942;28;27470;-70
2021/06/14 13:43:11;;;;;;;2.83;1.23;;;31.50;47.40;;;;;;5084194;28;27329;-66
2021/06/14 13:46:04;;;;;;;4.30;1.75;;;31.40;49.00;;;;;;5083535;28;27477;-66
2021/06/14 13:48:54;;;;;;;2.63;1.42;;;31.40;50.90;;;;;;5083991;28;27470;-66
2021/06/14 13:51:54;;;;;;;5.18;1.52;;;31.40;50.80;;;;;;5084120;28;27360;-66
2021/06/14 13:55:16;;;;;;;3.28;1.92;;;31.40;48.80;;;;;;5083219;28;27510;-66
2021/06/14 13:58:38;;;;;;;4.50;1.50;;;31.50;50.60;;;;;;5082214;28;27327;-68
2021/06/14 14:01:33;;;;;;;2.78;1.58;;;31.60;48.30;;;;;;5083353;28;27337;-66
2021/06/14 14:04:42;;;;;;;3.38;1.63;;;31.80;49.20;;;;;;5083155;28;27372;-66
2021/06/14 14:07:33;;;;;;;3.15;1.77;;;31.80;47.90;;;;;;5083532;28;27557;-66
2021/06/14 14:10:45;;;;;;;3.15;1.67;;;31.90;47.60;;;;;;5082947;28;27374;-66
2021/06/14 14:13:40;;;;;;;2.30;1.40;;;32.00;46.90;;;;;;5084026;28;27363;-66
2021/06/14 14:16:31;;;;;;;4.65;1.80;;;32.20;45.80;;;;;;5084015;28;27474;-68
2021/06/14 14:19:45;;;;;;;5.85;1.80;;;32.20;46.30;;;;;;5083685;28;27315;-66
2021/06/14 14:22:36;;;;;;;2.70;1.70;;;32.30;46.30;;;;;;5082876;28;27915;-66
2021/06/14 14:25:27;;;;;;;2.55;1.50;;;32.40;46.50;;;;;;5083234;28;27452;-66
2021/06/14 14:28:18;;;;;;;4.75;1.38;;;32.40;46.10;;;;;;5083547;28;27406;-67
2021/06/14 14:31:10;;;;;;;1.85;1.58;;;32.30;46.10;;;;;;5079598;28;27475;-65
2021/06/14 14:34:07;;;;;;;4.75;1.90;;;32.20;46.30;;;;;;5082761;28;27482;-69
2021/06/14 14:36:58;;;;;;;2.83;1.70;;;32.10;46.80;;;;;;5079518;28;27472;-66
2021/06/14 14:39:48;;;;;;;4.05;1.60;;;32.00;46.80;;;;;;5083457;28;27498;-66
2021/06/14 14:42:40;;;;;;;3.28;1.50;;;31.90;47.00;;;;;;5082634;28;27558;-66
2021/06/14 14:45:31;;;;;;;3.72;1.67;;;31.90;48.00;;;;;;5083287;28;27407;-66
2021/06/14 14:48:22;;;;;;;5.35;1.73;;;31.90;46.70;;;;;;5083505;28;27548;-66
2021/06/14 14:51:12;;;;;;;3.83;1.48;;;31.90;45.90;;;;;;5084798;28;27419;-65